Time;durP1;ratioP1;P1;durP2;ratioP2;P2;SDS_P1;SDS_P2;PMS_P1;PMS_P2;Temp;Humidity;BMP_temperature;BMP_pressure;BME280_temperature;BME280_humidity;BME280_pressure;Samples;Min_cycle;Max_cycle;Signal;HPM_P1;HPM_P2
2022/08/20 00:00:24;;;;;;;21.45;11.13;;;16.90;99.90;;;;;;5053934;28;20495;-25
2022/08/20 00:02:56;;;;;;;28.48;12.13;;;17.00;99.90;;;;;;5053953;28;20179;-25
2022/08/20 00:05:36;;;;;;;20.15;11.00;;;16.70;99.90;;;;;;5052468;28;20454;-25
2022/08/20 00:08:05;;;;;;;27.85;12.30;;;16.90;99.90;;;;;;5055074;28;20052;-26
2022/08/20 00:10:32;;;;;;;21.92;11.80;;;17.00;99.90;;;;;;5054981;28;20041;-25
2022/08/20 00:12:58;;;;;;;28.38;12.57;;;16.80;99.90;;;;;;5054944;28;20045;-25
2022/08/20 00:15:28;;;;;;;30.83;13.00;;;16.80;99.90;;;;;;5053850;28;20048;-25
2022/08/20 00:17:55;;;;;;;27.55;11.65;;;17.20;99.90;;;;;;5053620;28;20044;-25
2022/08/20 00:20:24;;;;;;;29.10;12.27;;;17.10;99.90;;;;;;5053519;28;20053;-26
2022/08/20 00:22:50;;;;;;;23.25;13.07;;;16.80;99.90;;;;;;5054755;28;20052;-26
2022/08/20 00:25:16;;;;;;;26.25;12.05;;;17.10;99.90;;;;;;5053484;28;20041;-26
2022/08/20 00:27:42;;;;;;;22.83;11.90;;;17.10;99.90;;;;;;5053711;28;20063;-26
2022/08/20 00:30:10;;;;;;;20.35;11.70;;;17.10;99.90;;;;;;5053951;28;20650;-26
2022/08/20 00:32:42;;;;;;;23.27;12.98;;;17.00;99.90;;;;;;5053570;28;20099;-26
2022/08/20 00:35:09;;;;;;;24.55;12.10;;;17.00;99.90;;;;;;5054309;28;20049;-25
2022/08/20 00:37:35;;;;;;;19.60;11.70;;;16.90;99.90;;;;;;5052517;28;20051;-26
2022/08/20 00:40:00;;;;;;;23.73;13.15;;;17.10;99.90;;;;;;5053211;28;20045;-26
2022/08/20 00:42:26;;;;;;;19.88;12.35;;;17.00;99.90;;;;;;5054063;28;20514;-25
2022/08/20 00:44:52;;;;;;;22.13;11.48;;;17.10;99.90;;;;;;5054308;28;20091;-26
2022/08/20 00:47:18;;;;;;;25.90;12.40;;;16.80;99.90;;;;;;5053364;28;20050;-26
2022/08/20 00:49:44;;;;;;;22.63;11.88;;;17.20;99.90;;;;;;5037465;28;20045;-26
2022/08/20 00:52:18;;;;;;;22.00;12.10;;;17.20;99.90;;;;;;5054209;28;20072;-26
2022/08/20 00:54:45;;;;;;;21.88;12.07;;;16.90;99.90;;;;;;5054218;28;20060;-25
2022/08/20 00:57:21;;;;;;;26.13;12.32;;;17.10;99.90;;;;;;5053376;28;20037;-25
2022/08/20 00:59:48;;;;;;;18.95;10.98;;;16.90;99.90;;;;;;5054133;28;20044;-26
2022/08/20 01:02:16;;;;;;;23.23;11.40;;;17.20;99.90;;;;;;5053104;28;20056;-25
2022/08/20 01:04:55;;;;;;;23.20;11.85;;;16.90;99.90;;;;;;5054246;28;20372;-25
2022/08/20 01:07:32;;;;;;;24.83;12.68;;;17.20;99.90;;;;;;5051920;28;20041;-25
2022/08/20 01:10:00;;;;;;;27.67;13.05;;;17.00;99.90;;;;;;5034045;28;20491;-25
2022/08/20 01:12:28;;;;;;;22.25;10.38;;;17.00;99.90;;;;;;5033956;28;20076;-25
2022/08/20 01:14:54;;;;;;;18.30;11.07;;;17.10;99.90;;;;;;5032962;28;20049;-25
2022/08/20 01:17:23;;;;;;;25.35;11.32;;;16.90;99.90;;;;;;5033547;28;20506;-25
2022/08/20 01:19:55;;;;;;;21.33;9.70;;;16.90;99.90;;;;;;5052081;28;20052;-26
2022/08/20 01:25:24;;;;;;;24.47;12.30;;;16.30;99.90;;;;;;5054372;28;20283;-25
2022/08/20 01:27:51;;;;;;;27.20;12.38;;;16.60;99.90;;;;;;5052614;28;20287;-25
2022/08/20 01:30:16;;;;;;;19.27;11.95;;;16.10;99.90;;;;;;5054178;28;20056;-25
2022/08/20 01:32:42;;;;;;;23.63;12.80;;;16.40;99.90;;;;;;5053618;28;20078;-25
2022/08/20 01:35:09;;;;;;;24.55;12.65;;;16.00;99.90;;;;;;5053284;28;20056;-25
2022/08/20 01:37:34;;;;;;;24.52;12.43;;;16.20;99.90;;;;;;5051186;28;21224;-25
2022/08/20 01:40:06;;;;;;;27.98;12.98;;;15.90;99.90;;;;;;5052843;28;20106;-25
2022/08/20 01:42:39;;;;;;;29.08;12.93;;;15.90;99.90;;;;;;5053535;28;20045;-24
2022/08/20 01:45:06;;;;;;;25.55;12.70;;;15.50;99.90;;;;;;5053590;28;20056;-25
2022/08/20 01:47:32;;;;;;;25.27;12.93;;;15.40;99.90;;;;;;5055274;28;20451;-25
2022/08/20 01:50:06;;;;;;;27.33;13.48;;;15.30;99.90;;;;;;5056561;28;20049;-25
2022/08/20 01:52:41;;;;;;;28.80;13.73;;;15.50;99.90;;;;;;5057914;28;20049;-25
2022/08/20 01:55:08;;;;;;;29.25;14.68;;;15.30;99.90;;;;;;5057542;28;20483;-25
2022/08/20 01:57:35;;;;;;;42.08;14.40;;;15.10;99.90;;;;;;5057435;28;20076;-25
2022/08/20 02:00:07;;;;;;;24.35;13.32;;;14.90;99.90;;;;;;5055038;28;20045;-25
2022/08/20 02:02:33;;;;;;;33.20;15.95;;;15.00;99.90;;;;;;5053417;28;20110;-25
2022/08/20 02:04:59;;;;;;;26.08;13.80;;;14.60;99.90;;;;;;5056038;28;20041;-25
2022/08/20 02:07:28;;;;;;;29.30;14.25;;;15.10;99.90;;;;;;5057297;28;20495;-25
2022/08/20 02:09:54;;;;;;;28.52;13.88;;;14.60;99.90;;;;;;5056592;28;20063;-25
2022/08/20 02:12:19;;;;;;;26.70;14.63;;;15.00;99.90;;;;;;5057212;28;20475;-25
2022/08/20 02:14:50;;;;;;;23.40;13.40;;;15.00;99.90;;;;;;5056122;28;20487;-25
2022/08/20 02:17:17;;;;;;;18.40;12.43;;;14.50;99.90;;;;;;5057405;28;20047;-25
2022/08/20 02:19:47;;;;;;;25.10;12.40;;;14.60;99.90;;;;;;5057099;28;20044;-25
2022/08/20 02:22:42;;;;;;;22.23;12.07;;;14.50;99.90;;;;;;5057637;28;20051;-25
2022/08/20 02:25:10;;;;;;;20.80;10.93;;;14.80;99.90;;;;;;5047594;28;20089;-25
2022/08/20 02:27:36;;;;;;;17.10;10.88;;;14.40;99.90;;;;;;5056186;28;20509;-25
2022/08/20 02:30:09;;;;;;;17.58;10.27;;;14.70;99.90;;;;;;5056564;28;20100;-25
2022/08/20 02:32:36;;;;;;;;;;;14.30;99.90;;;;;;5056343;28;20057;-24
2022/08/20 02:35:07;;;;;;;26.73;11.73;;;14.10;99.90;;;;;;5055335;28;19920;-25
2022/08/20 02:37:34;;;;;;;18.25;11.77;;;14.30;99.90;;;;;;5055570;28;20128;-25
2022/08/20 02:40:00;;;;;;;26.27;11.95;;;14.20;99.90;;;;;;5056724;28;20037;-25
2022/08/20 02:42:26;;;;;;;21.30;12.18;;;14.10;99.90;;;;;;5056751;28;20080;-25
2022/08/20 02:44:53;;;;;;;21.40;11.60;;;14.00;99.90;;;;;;5055546;28;20075;-25
2022/08/20 02:47:18;;;;;;;18.17;11.63;;;14.30;99.90;;;;;;5055444;28;20538;-25
2022/08/20 02:49:44;;;;;;;22.42;11.70;;;14.20;99.90;;;;;;5055319;28;20127;-25
2022/08/20 02:52:10;;;;;;;26.38;11.35;;;13.80;99.90;;;;;;5056093;28;20045;-24
2022/08/20 02:54:36;;;;;;;23.00;12.93;;;14.00;99.90;;;;;;5056462;28;20107;-24
2022/08/20 02:57:02;;;;;;;22.65;11.35;;;14.20;99.90;;;;;;5055210;28;20123;-25
2022/08/20 02:59:28;;;;;;;23.55;11.32;;;14.20;99.90;;;;;;5072349;28;20049;-24
2022/08/20 03:01:54;;;;;;;23.50;11.90;;;14.40;99.90;;;;;;5056346;28;20398;-24
2022/08/20 03:04:20;;;;;;;26.10;13.10;;;14.40;99.90;;;;;;5056253;28;20053;-24
2022/08/20 03:06:46;;;;;;;25.10;12.43;;;14.10;99.90;;;;;;5055352;28;20103;-25
2022/08/20 03:09:11;;;;;;;28.95;11.93;;;14.40;99.90;;;;;;5056150;28;20495;-25
2022/08/20 03:11:38;;;;;;;23.88;11.32;;;14.60;99.90;;;;;;5056119;28;20088;-25
2022/08/20 03:14:05;;;;;;;19.77;10.90;;;14.30;99.90;;;;;;5054947;28;20053;-25
2022/08/20 03:16:31;;;;;;;20.67;11.65;;;14.50;99.90;;;;;;5053694;28;20055;-25
2022/08/20 03:18:57;;;;;;;22.42;11.68;;;14.50;99.90;;;;;;5056784;28;20076;-24
2022/08/20 03:21:25;;;;;;;20.90;10.68;;;14.60;99.90;;;;;;5055986;28;20049;-24
2022/08/20 03:23:51;;;;;;;20.25;10.10;;;14.20;99.90;;;;;;5038422;28;20052;-24
2022/08/20 03:26:17;;;;;;;17.55;9.45;;;14.20;99.90;;;;;;5055854;28;20041;-25
2022/08/20 03:28:43;;;;;;;16.55;9.13;;;14.10;99.90;;;;;;5037360;28;20498;-25
2022/08/20 03:31:09;;;;;;;19.23;9.52;;;14.10;99.90;;;;;;5055722;28;20052;-25
2022/08/20 03:33:38;;;;;;;26.80;9.23;;;14.30;99.90;;;;;;5054517;28;20053;-24
2022/08/20 03:36:04;;;;;;;21.42;10.18;;;14.40;99.90;;;;;;5055557;28;20090;-24
2022/08/20 03:38:33;;;;;;;22.73;9.63;;;14.00;99.90;;;;;;5053567;28;20125;-25
2022/08/20 03:40:59;;;;;;;17.90;8.55;;;14.30;99.90;;;;;;5055560;28;20479;-24
2022/08/20 03:43:27;;;;;;;19.27;8.88;;;13.90;99.90;;;;;;5054689;28;20196;-25
2022/08/20 03:45:53;;;;;;;18.88;8.95;;;13.80;99.90;;;;;;5054911;28;20103;-24
2022/08/20 03:48:20;;;;;;;17.67;9.57;;;14.10;99.90;;;;;;5053398;28;20056;-25
2022/08/20 03:50:49;;;;;;;14.20;7.13;;;13.70;99.90;;;;;;5054643;28;20072;-25
2022/08/20 03:53:16;;;;;;;18.13;7.72;;;13.90;99.90;;;;;;5056156;28;20052;-25
2022/08/20 03:55:48;;;;;;;16.20;8.20;;;14.10;99.90;;;;;;5055158;28;20048;-24
2022/08/20 03:58:16;;;;;;;26.03;8.90;;;14.00;99.90;;;;;;5055277;28;20446;-24
2022/08/20 04:00:48;;;;;;;18.38;7.60;;;13.80;99.90;;;;;;5052880;28;20045;-25
2022/08/20 04:03:15;;;;;;;15.95;6.72;;;14.20;99.90;;;;;;5055464;28;20447;-25
2022/08/20 04:05:42;;;;;;;23.77;8.13;;;14.20;99.90;;;;;;5037253;28;20091;-25
2022/08/20 04:08:16;;;;;;;15.90;7.07;;;14.20;99.90;;;;;;5055945;28;20103;-25
2022/08/20 04:10:45;;;;;;;12.80;6.90;;;14.30;99.90;;;;;;5053699;28;20049;-25
2022/08/20 04:13:11;;;;;;;21.98;6.72;;;14.00;99.90;;;;;;5055032;28;20056;-25
2022/08/20 04:15:38;;;;;;;15.20;6.40;;;14.20;99.90;;;;;;5055470;28;20391;-25
2022/08/20 04:18:09;;;;;;;18.98;6.38;;;14.20;99.90;;;;;;5055314;28;20126;-25
2022/08/20 04:20:36;;;;;;;12.32;6.05;;;13.90;99.90;;;;;;5053884;28;20057;-25
2022/08/20 04:23:03;;;;;;;17.85;6.40;;;14.00;99.90;;;;;;5037479;28;20055;-25
2022/08/20 04:25:30;;;;;;;15.98;5.75;;;13.90;99.90;;;;;;5054716;28;20041;-25
2022/08/20 04:28:01;;;;;;;14.00;6.30;;;14.10;99.90;;;;;;5054931;28;20130;-25
2022/08/20 04:30:28;;;;;;;19.50;6.72;;;13.80;99.90;;;;;;5052250;28;20442;-25
2022/08/20 04:32:54;;;;;;;16.83;6.72;;;13.70;99.90;;;;;;5055145;28;20366;-25
2022/08/20 04:35:27;;;;;;;17.30;7.75;;;13.90;99.90;;;;;;5053283;28;20430;-25
2022/08/20 04:38:10;;;;;;;17.52;6.85;;;13.60;99.90;;;;;;5054470;28;20033;-24
2022/08/20 04:40:57;;;;;;;15.35;5.55;;;13.80;99.90;;;;;;5054512;28;20055;-25
2022/08/20 04:43:30;;;;;;;14.52;6.80;;;13.70;99.90;;;;;;5034540;28;20051;-25
2022/08/20 04:45:58;;;;;;;16.83;6.50;;;13.80;99.90;;;;;;5034773;28;20056;-25
2022/08/20 04:48:26;;;;;;;19.27;6.68;;;13.50;99.90;;;;;;5034657;28;20130;-24
2022/08/20 04:50:52;;;;;;;13.13;5.97;;;13.60;99.90;;;;;;5034346;28;20132;-24
2022/08/20 04:53:21;;;;;;;15.18;6.43;;;13.50;99.90;;;;;;5050949;28;20123;-25
2022/08/20 04:55:47;;;;;;;17.45;6.72;;;13.80;99.90;;;;;;5054175;28;20110;-25
2022/08/20 04:58:29;;;;;;;18.10;6.90;;;14.00;99.90;;;;;;5053157;28;20045;-25
2022/08/20 05:00:57;;;;;;;12.50;6.25;;;14.00;99.90;;;;;;5054715;28;20373;-25
2022/08/20 05:03:23;;;;;;;15.50;6.15;;;13.80;99.90;;;;;;5051934;28;20045;-25
2022/08/20 05:05:50;;;;;;;17.75;7.28;;;14.10;99.90;;;;;;5053670;28;20490;-25
2022/08/20 05:08:23;;;;;;;17.10;5.65;;;14.00;99.90;;;;;;5053932;28;20048;-25
2022/08/20 05:10:52;;;;;;;19.55;6.55;;;13.90;99.90;;;;;;5037142;28;20088;-24
2022/08/20 05:13:18;;;;;;;16.88;6.05;;;13.90;99.90;;;;;;5052741;28;20124;-25
2022/08/20 05:15:44;;;;;;;13.50;5.63;;;13.90;99.90;;;;;;5054434;28;20045;-25
2022/08/20 05:18:11;;;;;;;18.60;6.15;;;13.70;59.50;;;;;;5053768;28;20501;-25
2022/08/20 05:20:44;;;;;;;14.85;5.45;;;13.60;1.00;;;;;;5052174;28;20091;-24
2022/08/20 05:23:15;;;;;;;14.85;5.78;;;13.60;1.00;;;;;;5051299;28;20529;-25
2022/08/20 05:25:43;;;;;;;16.33;5.80;;;13.80;1.00;;;;;;5053777;28;20127;-25
2022/08/20 05:28:12;;;;;;;15.43;5.28;;;13.70;1.00;;;;;;5052466;28;20037;-25
2022/08/20 05:30:43;;;;;;;15.23;5.88;;;13.70;1.00;;;;;;5052994;28;20045;-24
2022/08/20 05:33:10;;;;;;;12.07;5.50;;;13.50;1.00;;;;;;5053964;28;20407;-25
2022/08/20 05:35:41;;;;;;;18.77;5.18;;;13.60;1.00;;;;;;5052050;28;20407;-25
2022/08/20 05:38:11;;;;;;;14.77;6.25;;;13.70;1.00;;;;;;5053836;28;20124;-25
2022/08/20 05:40:43;;;;;;;18.48;6.20;;;13.70;1.00;;;;;;5054434;28;20418;-25
2022/08/20 05:43:12;;;;;;;19.90;8.25;;;13.50;1.00;;;;;;5053569;28;20045;-25
2022/08/20 05:45:40;;;;;;;11.68;5.43;;;13.70;1.00;;;;;;5052436;28;20072;-25
2022/08/20 05:48:16;;;;;;;15.90;6.25;;;13.50;1.00;;;;;;5053491;28;20060;-25
2022/08/20 05:50:44;;;;;;;12.52;5.53;;;13.90;1.00;;;;;;5053726;28;20514;-25
2022/08/20 05:53:10;;;;;;;13.70;5.68;;;13.70;1.00;;;;;;5052496;28;20131;-25
2022/08/20 05:55:37;;;;;;;17.33;6.35;;;13.90;1.00;;;;;;5051156;28;20056;-25
2022/08/20 05:58:09;;;;;;;14.93;6.22;;;14.10;9.60;;;;;;5052144;28;20056;-24
2022/08/20 06:00:40;;;;;;;14.20;5.07;;;14.40;27.90;;;;;;5053985;28;20089;-24
2022/08/20 06:05:50;;;;;;;14.00;5.05;;;14.50;36.80;;;;;;5051627;28;20057;-25
2022/08/20 06:08:16;;;;;;;12.82;4.00;;;14.80;35.90;;;;;;5052667;28;20463;-25
2022/08/20 06:10:43;;;;;;;10.75;3.38;;;14.90;26.60;;;;;;5053595;28;20064;-25
2022/08/20 06:13:09;;;;;;;15.35;3.65;;;15.10;10.40;;;;;;5052325;28;20084;-25
2022/08/20 06:15:35;;;;;;;12.02;2.70;;;15.40;1.00;;;;;;5053236;28;20052;-25
2022/08/20 06:18:06;;;;;;;10.23;2.17;;;15.50;1.00;;;;;;5052207;28;20040;-25
2022/08/20 06:20:34;;;;;;;10.23;1.98;;;15.80;99.90;;;;;;5035403;28;20479;-25
2022/08/20 06:23:00;;;;;;;9.55;1.98;;;16.00;99.90;;;;;;5052199;28;20060;-25
2022/08/20 06:25:25;;;;;;;6.75;2.60;;;16.10;20.10;;;;;;5035613;28;20041;-25
2022/08/20 06:27:51;;;;;;;10.15;2.20;;;16.20;1.00;;;;;;5046614;28;20033;-25
2022/08/20 06:30:19;;;;;;;6.85;1.77;;;16.40;99.90;;;;;;5056144;28;20041;-25
2022/08/20 06:32:44;;;;;;;11.73;1.60;;;16.50;68.90;;;;;;5044868;28;20449;-25
2022/08/20 06:35:11;;;;;;;5.78;1.60;;;16.60;1.00;;;;;;5066765;28;20094;-26
2022/08/20 06:37:39;;;;;;;11.77;2.08;;;16.80;99.90;;;;;;5056679;28;20052;-25
2022/08/20 06:40:18;;;;;;;5.80;1.55;;;16.90;99.90;;;;;;5054733;28;20119;-25
2022/08/20 06:42:49;;;;;;;7.00;1.33;;;17.00;1.00;;;;;;5057061;28;20399;-25
2022/08/20 06:45:18;;;;;;;8.98;1.75;;;17.20;99.90;;;;;;5056175;28;20048;-26
2022/08/20 06:47:45;;;;;;;12.63;1.90;;;17.20;41.20;;;;;;5056637;28;20041;-25
2022/08/20 06:50:18;;;;;;;9.23;2.17;;;17.40;22.70;;;;;;5056596;28;20052;-25
2022/08/20 06:52:45;;;;;;;10.48;2.03;;;17.40;1.00;;;;;;5055624;28;20471;-25
2022/08/20 06:55:13;;;;;;;8.18;1.85;;;17.50;1.00;;;;;;5055328;28;20071;-25
2022/08/20 06:57:39;;;;;;;9.32;1.70;;;17.50;1.00;;;;;;5056183;28;20045;-26
2022/08/20 07:00:18;;;;;;;8.50;1.30;;;17.50;1.00;;;;;;5056355;28;20056;-25
2022/08/20 07:02:45;;;;;;;8.57;1.95;;;17.60;99.90;;;;;;5056971;28;20458;-25
2022/08/20 07:05:11;;;;;;;6.57;1.23;;;17.80;99.90;;;;;;5056027;28;20483;-25
2022/08/20 07:07:42;;;;;;;4.95;1.52;;;17.90;99.90;;;;;;5056274;28;20048;-25
2022/08/20 07:10:11;;;;;;;8.30;1.33;;;18.00;99.90;;;;;;5057051;28;20052;-25
2022/08/20 07:12:37;;;;;;;8.30;1.38;;;18.20;99.90;;;;;;5056111;28;20052;-26
2022/08/20 07:15:08;;;;;;;9.60;1.40;;;18.30;78.30;;;;;;5055058;28;20052;-26
2022/08/20 07:17:35;;;;;;;9.88;2.88;;;18.40;1.00;;;;;;5055220;28;20037;-26
2022/08/20 07:20:12;;;;;;;9.90;2.15;;;18.50;1.00;;;;;;5056013;28;20067;-25
2022/08/20 07:22:38;;;;;;;5.15;1.58;;;18.50;99.90;;;;;;5056153;28;20052;-25
2022/08/20 07:25:05;;;;;;;6.80;1.45;;;18.70;1.00;;;;;;5055927;28;20111;-25
2022/08/20 07:27:31;;;;;;;12.68;1.58;;;18.70;1.00;;;;;;5055700;28;20060;-25
2022/08/20 07:32:41;;;;;;;7.25;0.90;;;18.70;1.00;;;;;;5035522;28;20479;-26
2022/08/20 07:35:13;;;;;;;8.10;1.25;;;18.80;1.00;;;;;;5035734;28;20479;-25
2022/08/20 07:37:44;;;;;;;4.88;1.08;;;18.90;99.90;;;;;;5035642;28;20041;-26
2022/08/20 07:40:13;;;;;;;6.47;1.38;;;18.90;99.90;;;;;;5034574;28;20103;-26
2022/08/20 07:42:39;;;;;;;2.42;0.93;;;19.00;99.90;;;;;;5035649;28;20399;-26
2022/08/20 07:45:09;;;;;;;8.70;1.38;;;19.10;99.90;;;;;;5039000;28;20048;-26
2022/08/20 07:47:41;;;;;;;6.38;1.20;;;19.20;64.50;;;;;;5055598;28;20534;-26
2022/08/20 07:50:15;;;;;;;10.52;1.88;;;19.20;99.90;;;;;;5037601;28;20060;-25
2022/08/20 07:52:40;;;;;;;5.88;0.90;;;19.40;1.00;;;;;;5055562;28;20048;-26
2022/08/20 07:55:09;;;;;;;8.10;1.40;;;19.40;1.00;;;;;;5055311;28;20044;-26
2022/08/20 07:57:36;;;;;;;8.05;1.45;;;19.50;1.00;;;;;;5055509;28;20121;-25
2022/08/20 08:00:04;;;;;;;6.45;1.25;;;19.60;99.90;;;;;;5055506;28;20060;-25
2022/08/20 08:02:30;;;;;;;10.60;2.13;;;19.70;99.90;;;;;;5053584;28;20074;-26
2022/08/20 08:04:55;;;;;;;4.78;2.13;;;19.70;99.90;;;;;;5045973;28;20040;-26
2022/08/20 08:07:22;;;;;;;8.93;1.33;;;19.80;99.90;;;;;;5053452;28;20518;-26
2022/08/20 08:09:49;;;;;;;6.72;1.20;;;19.90;99.90;;;;;;5054731;28;20564;-26
2022/08/20 08:12:15;;;;;;;6.45;1.65;;;19.90;99.90;;;;;;5053916;28;20053;-26
2022/08/20 08:14:44;;;;;;;7.22;1.20;;;20.00;99.90;;;;;;5054016;28;20068;-25
2022/08/20 08:17:12;;;;;;;9.10;1.95;;;20.00;99.90;;;;;;5053738;28;20486;-26
2022/08/20 08:19:47;;;;;;;6.75;1.20;;;20.10;99.90;;;;;;5053636;28;20450;-26
2022/08/20 08:22:17;;;;;;;6.20;1.00;;;20.10;99.90;;;;;;5055444;28;20052;-25
2022/08/20 08:24:45;;;;;;;11.90;2.53;;;20.20;99.90;;;;;;5053600;28;20045;-26
2022/08/20 08:27:12;;;;;;;7.00;1.40;;;20.30;1.00;;;;;;5053130;28;20087;-26
2022/08/20 08:29:38;;;;;;;5.30;0.90;;;20.30;1.00;;;;;;5054691;28;20123;-26
2022/08/20 08:32:05;;;;;;;8.57;1.30;;;20.40;1.00;;;;;;5054599;28;20131;-26
2022/08/20 08:34:37;;;;;;;10.15;1.60;;;20.40;1.00;;;;;;5052901;28;20436;-26
2022/08/20 08:37:04;;;;;;;7.63;1.30;;;20.40;1.00;;;;;;5043283;28;20083;-26
2022/08/20 08:39:31;;;;;;;6.25;1.27;;;20.50;1.00;;;;;;5052047;28;20052;-25
2022/08/20 08:41:59;;;;;;;7.78;1.10;;;20.50;99.90;;;;;;5049199;28;20053;-26
2022/08/20 08:44:37;;;;;;;9.38;1.23;;;20.50;99.90;;;;;;5033268;28;20048;-25
2022/08/20 08:47:28;;;;;;;8.27;1.48;;;20.50;1.00;;;;;;5034134;28;20101;-26
2022/08/20 08:49:56;;;;;;;6.28;1.65;;;20.60;99.90;;;;;;5052579;28;20051;-26
2022/08/20 08:52:27;;;;;;;9.68;1.50;;;20.60;99.90;;;;;;5052262;28;20048;-26
2022/08/20 08:54:58;;;;;;;13.02;2.42;;;20.70;99.90;;;;;;5054257;28;20091;-26
2022/08/20 08:57:25;;;;;;;5.63;1.17;;;20.80;99.90;;;;;;5044798;28;20072;-26
2022/08/20 09:00:03;;;;;;;9.55;1.63;;;20.90;1.00;;;;;;5054696;28;20045;-26
2022/08/20 09:02:30;;;;;;;6.75;1.05;;;21.00;99.90;;;;;;5051549;28;20055;-26
2022/08/20 09:04:59;;;;;;;8.50;1.52;;;21.10;99.90;;;;;;5054001;28;20056;-26
2022/08/20 09:07:30;;;;;;;10.23;1.63;;;21.30;99.90;;;;;;5036476;28;20382;-26
2022/08/20 09:09:56;;;;;;;7.07;1.25;;;21.70;99.90;;;;;;5053696;28;20502;-26
2022/08/20 09:12:26;;;;;;;7.40;1.70;;;22.60;99.90;;;;;;5034792;28;20127;-26
2022/08/20 09:14:53;;;;;;;10.90;2.70;;;23.40;99.90;;;;;;5052987;28;20438;-26
2022/08/20 09:17:21;;;;;;;9.05;2.25;;;23.10;99.90;;;;;;5054308;28;20041;-26
2022/08/20 09:19:48;;;;;;;6.03;1.35;;;23.00;99.90;;;;;;5052836;28;20056;-26
2022/08/20 09:22:17;;;;;;;6.22;1.52;;;23.20;99.90;;;;;;5036639;28;20387;-27
2022/08/20 09:24:44;;;;;;;7.10;1.15;;;23.50;99.90;;;;;;5053849;28;20052;-26
2022/08/20 09:27:12;;;;;;;8.32;1.70;;;23.90;99.90;;;;;;5049248;28;20039;-26
2022/08/20 09:29:38;;;;;;;8.35;2.53;;;24.20;86.90;;;;;;5052573;28;20506;-26
2022/08/20 09:32:12;;;;;;;8.25;1.63;;;24.40;99.90;;;;;;5051686;28;20057;-26
2022/08/20 09:34:43;;;;;;;7.20;1.60;;;24.00;59.20;;;;;;5051782;28;20048;-26
2022/08/20 09:37:09;;;;;;;6.38;1.55;;;24.00;86.30;;;;;;5053097;28;20095;-27
2022/08/20 09:39:35;;;;;;;9.90;1.52;;;24.60;99.90;;;;;;5052250;28;20509;-26
2022/08/20 09:42:15;;;;;;;9.07;1.60;;;24.70;39.40;;;;;;5052367;28;20487;-26
2022/08/20 09:44:42;;;;;;;4.63;1.10;;;23.70;1.00;;;;;;5053425;28;20041;-26
2022/08/20 09:47:08;;;;;;;7.13;1.60;;;22.80;89.70;;;;;;5052409;28;20053;-26
2022/08/20 09:49:36;;;;;;;8.18;1.60;;;22.50;99.90;;;;;;5052196;28;20045;-26
2022/08/20 09:52:04;;;;;;;7.15;1.27;;;23.00;94.30;;;;;;5052303;28;20084;-26
2022/08/20 09:54:32;;;;;;;4.97;1.30;;;23.90;70.70;;;;;;5038349;28;20098;-26
2022/08/20 09:57:01;;;;;;;7.03;1.77;;;24.60;60.60;;;;;;5053852;28;20087;-26
2022/08/20 09:59:28;;;;;;;7.72;1.35;;;25.20;47.80;;;;;;5035829;28;20476;-27
2022/08/20 10:01:54;;;;;;;8.50;1.83;;;25.10;19.70;;;;;;5052665;28;20171;-27
2022/08/20 10:04:19;;;;;;;7.88;1.67;;;24.70;29.40;;;;;;5045523;28;20136;-26
2022/08/20 10:06:45;;;;;;;8.43;1.67;;;24.50;63.20;;;;;;5055277;28;20391;-26
2022/08/20 10:09:11;;;;;;;6.68;1.45;;;24.90;82.00;;;;;;5046929;28;20060;-27
2022/08/20 10:11:37;;;;;;;5.47;1.55;;;24.50;1.00;;;;;;5037415;28;20184;-26
2022/08/20 10:14:03;;;;;;;7.25;1.23;;;24.70;1.00;;;;;;5054973;28;20483;-26
2022/08/20 10:16:28;;;;;;;10.93;2.60;;;24.70;1.00;;;;;;5057549;28;20059;-26
2022/08/20 10:18:54;;;;;;;11.60;2.88;;;24.20;5.20;;;;;;5056101;28;20155;-26
2022/08/20 10:21:20;;;;;;;8.90;1.75;;;23.60;18.90;;;;;;5057731;28;20049;-26
2022/08/20 10:23:46;;;;;;;6.85;1.40;;;23.00;58.30;;;;;;5057152;28;20044;-27
2022/08/20 10:26:13;;;;;;;10.15;2.08;;;22.40;20.60;;;;;;5057060;28;20045;-26
2022/08/20 10:28:39;;;;;;;10.15;1.77;;;22.10;43.30;;;;;;5057004;28;20048;-26
2022/08/20 10:31:08;;;;;;;7.50;1.83;;;21.70;95.60;;;;;;5055986;28;20056;-26
2022/08/20 10:33:35;;;;;;;7.80;1.73;;;21.60;99.90;;;;;;5056878;28;20080;-26
2022/08/20 10:36:14;;;;;;;8.27;1.85;;;21.60;99.90;;;;;;5056719;28;20053;-26
2022/08/20 10:38:40;;;;;;;7.72;1.67;;;21.70;99.90;;;;;;5057611;28;20091;-26
2022/08/20 10:41:06;;;;;;;8.32;1.73;;;21.60;99.90;;;;;;5055144;28;20056;-26
2022/08/20 10:43:33;;;;;;;5.25;1.17;;;21.60;99.90;;;;;;5055733;28;20119;-26
2022/08/20 10:45:59;;;;;;;7.53;1.90;;;22.20;99.90;;;;;;5052409;28;20191;-26
2022/08/20 10:48:25;;;;;;;9.80;2.03;;;23.00;99.90;;;;;;5056816;28;20395;-26
2022/08/20 10:50:51;;;;;;;6.82;1.80;;;23.90;38.30;;;;;;5053238;28;20045;-26
2022/08/20 10:53:17;;;;;;;4.55;1.25;;;24.50;22.10;;;;;;5052376;28;20195;-27
2022/08/20 10:55:43;;;;;;;8.30;2.33;;;24.60;1.00;;;;;;5055780;28;20049;-26
2022/08/20 10:58:09;;;;;;;4.93;1.38;;;24.40;2.20;;;;;;5055714;28;20091;-27
2022/08/20 11:00:38;;;;;;;4.80;0.95;;;24.10;10.60;;;;;;5068209;28;20044;-26
2022/08/20 11:03:04;;;;;;;9.25;1.55;;;23.80;6.10;;;;;;5056326;28;20186;-26
2022/08/20 11:05:30;;;;;;;5.15;1.30;;;23.60;9.30;;;;;;5055948;28;20132;-27
2022/08/20 11:07:56;;;;;;;5.18;1.52;;;24.00;18.30;;;;;;5038993;28;20538;-27
2022/08/20 11:10:25;;;;;;;5.72;1.15;;;24.90;44.10;;;;;;5056206;28;20049;-26
2022/08/20 11:12:53;;;;;;;8.35;2.13;;;25.80;68.50;;;;;;5055249;28;20133;-27
2022/08/20 11:15:19;;;;;;;8.48;1.65;;;26.30;99.90;;;;;;5056089;28;20052;-27
2022/08/20 11:17:45;;;;;;;4.03;1.00;;;25.90;99.90;;;;;;5056257;28;20045;-27
2022/08/20 11:20:18;;;;;;;6.63;1.40;;;24.70;98.80;;;;;;5053734;28;20049;-27
2022/08/20 11:22:44;;;;;;;5.88;1.65;;;23.80;20.70;;;;;;5056030;28;20040;-26
2022/08/20 11:25:10;;;;;;;6.68;1.38;;;23.00;28.50;;;;;;5056179;28;20063;-27
2022/08/20 11:27:43;;;;;;;6.40;1.40;;;22.50;44.10;;;;;;5055893;28;20052;-28
2022/08/20 11:30:13;;;;;;;10.98;2.22;;;22.30;2.20;;;;;;5048974;28;20116;-27
2022/08/20 11:32:39;;;;;;;4.68;1.67;;;22.40;94.40;;;;;;5046802;28;20044;-27
2022/08/20 11:35:05;;;;;;;5.78;1.60;;;22.40;13.80;;;;;;5047046;28;20049;-27
2022/08/20 11:37:32;;;;;;;11.75;1.98;;;22.50;21.90;;;;;;5047467;28;20063;-27
2022/08/20 11:39:57;;;;;;;10.23;1.58;;;23.20;43.40;;;;;;5048874;28;20044;-26
2022/08/20 11:42:23;;;;;;;7.60;1.38;;;23.90;20.30;;;;;;5058597;28;20037;-27
2022/08/20 11:44:49;;;;;;;6.32;1.73;;;24.70;1.00;;;;;;5054588;28;20138;-26
2022/08/20 11:47:27;;;;;;;4.57;1.50;;;25.20;63.70;;;;;;5054374;28;20037;-27
2022/08/20 11:50:01;;;;;;;6.85;1.60;;;25.60;88.00;;;;;;5055672;28;20147;-27
2022/08/20 11:52:28;;;;;;;6.88;1.35;;;25.40;78.60;;;;;;5041087;28;20045;-27
2022/08/20 11:54:54;;;;;;;4.97;1.38;;;25.50;72.20;;;;;;5055365;28;20490;-26
2022/08/20 11:57:22;;;;;;;5.28;1.20;;;25.80;73.90;;;;;;5055228;28;20044;-27
2022/08/20 11:59:49;;;;;;;6.22;1.10;;;26.00;75.60;;;;;;5037678;28;20056;-27
2022/08/20 12:02:15;;;;;;;7.78;1.70;;;26.40;91.90;;;;;;5053057;28;20173;-27
2022/08/20 12:04:41;;;;;;;5.55;1.30;;;26.10;80.50;;;;;;5055192;28;20045;-27
2022/08/20 12:07:13;;;;;;;6.72;1.92;;;25.80;58.40;;;;;;5054962;28;20103;-27
2022/08/20 12:09:39;;;;;;;8.02;2.17;;;25.30;29.20;;;;;;5055086;28;20049;-27
2022/08/20 12:12:06;;;;;;;5.88;1.30;;;25.30;65.50;;;;;;5053933;28;20049;-27
2022/08/20 12:14:32;;;;;;;8.85;1.95;;;25.20;38.20;;;;;;5054994;28;20052;-27
2022/08/20 12:17:10;;;;;;;5.30;1.58;;;25.10;31.40;;;;;;5055103;28;20122;-27
2022/08/20 12:19:37;;;;;;;8.05;1.35;;;25.10;13.70;;;;;;5054962;28;20044;-27
2022/08/20 12:22:03;;;;;;;4.30;1.27;;;25.10;6.20;;;;;;5053867;28;20041;-27
2022/08/20 12:24:29;;;;;;;6.15;1.92;;;25.00;27.60;;;;;;5054163;28;20098;-27
2022/08/20 12:26:55;;;;;;;5.18;1.67;;;24.90;26.50;;;;;;5053566;28;20510;-26
2022/08/20 12:29:20;;;;;;;5.35;1.38;;;24.80;25.90;;;;;;5054239;28;20056;-27
2022/08/20 12:31:46;;;;;;;11.68;1.98;;;24.90;39.80;;;;;;5054820;28;20044;-26
2022/08/20 12:34:12;;;;;;;7.28;1.50;;;24.40;1.00;;;;;;5053772;28;20041;-27
2022/08/20 12:36:37;;;;;;;7.53;1.85;;;24.20;27.60;;;;;;5054387;28;20493;-27
2022/08/20 12:39:03;;;;;;;9.05;1.67;;;24.40;20.10;;;;;;5054527;28;20068;-26
2022/08/20 12:41:29;;;;;;;6.93;1.33;;;24.70;91.50;;;;;;5054483;28;20045;-27
2022/08/20 12:43:54;;;;;;;7.47;1.77;;;24.50;46.00;;;;;;5052338;28;20048;-27
2022/08/20 12:46:20;;;;;;;8.48;1.70;;;24.40;63.00;;;;;;5054353;28;20063;-27
2022/08/20 12:48:46;;;;;;;10.18;2.00;;;24.20;75.30;;;;;;5050964;28;20040;-27
2022/08/20 12:51:11;;;;;;;6.85;1.45;;;23.70;56.80;;;;;;5052079;28;20087;-27
2022/08/20 12:53:37;;;;;;;7.75;1.70;;;23.20;27.20;;;;;;5043677;28;20419;-27